Hauptseite
METAR-TAF:

METAR-TAF

Flughäfen :

Aizawl, Indien

Breite: 23-50-18N, Länge: 92-37-13E, Höhe: 405 m

Beobachtung

Neuester Wetterbericht von vor 13 Stunden und 3 Minuten, um 07:00 UTC
Wind 4 kt aus Nordost
Temperatur 23°C
Luftfeuchtigkeit 44%
Luftdruck 1016 hPa
Sichtweite: 5000 m
Leicht bewölkt in der Höhe von 1800 ft
trockener Dunst

METAR: VELP 200700Z 05004KT 5000 HZ FEW018 23/10 Q1016 NOSIG

Zeit: 01:33 (20:03 UTC)

Prognose

Neuester Wetterbericht von vor 12 Stunden und 3 Minuten, um 08:00 UTC
Gültige Prognose vom 20 um 09 UTC bis 20 um 18 UTC
Wind 4 kt aus Nord/Nordost
Sichtweite: 5000 m
Leicht bewölkt in der Höhe von 1800 ft
trockener Dunst
Übergehend zu
vom 20 um 12 UTC bis 20 um 14 UTC
Wind kt aus Nord
Sichtweite: 4000 m
feuchter Dunst

TAF: VELP 200800Z 2009/2018 03004KT 5000 HZ FEW018 BECMG 2012/2014 00000KT 4000 BR NSC

Wetterbeobachtungen und Prognosen von mehr als 4000 Flughäfen (METAR und TAF Bericht).

Die verfügbaren Stationen werden durch gelbe und rote Markierungen auf der Karte dargestellt.

Führen Sie die Maus auf sie, um den Namen der Station zu sehen.

Darauf klicken, um die Beobachtung von Wetterbeobachtungen und Prognosen zu sehen.

Um die Karte zu ändern : klicken Sie auf den grünen Tasten mit einem schwarzen Kreuz Zum Vergrößern, auf den grünen Button mit einem Gedankenstrich zu verkleinern, oder auf die grünen Pfeile für benachbarte Karten.


METAR-TAF: